ADDS METAR Data INFO
IDs: Format: Raw Decoded Include TAF

Data at: 1145 UTC 23 Jun 2018

PAUN 231056Z AUTO 10004KT 10SM OVC044 08/06 A3009 RMK AO2 SLP193 T00830061
PAUN 230956Z AUTO 13004KT 10SM FEW044 BKN060 09/07 A3008 RMK AO2 SLP190 T00890067
PAUN 230856Z AUTO 10003KT 10SM SCT043 BKN050 09/07 A3006 RMK AO2 SLP185 T00940067 401440094 53012
PAUN 230756Z AUTO 31003KT 10SM CLR 12/07 A3005 RMK AO2 SLP180 T01220067
PAUN 230656Z AUTO 30004KT 10SM CLR 13/06 A3004 RMK AO2 SLP177 T01280061
PAUN 230556Z AUTO 31005KT 10SM FEW070 OVC095 13/06 A3003 RMK AO2 SLP173 60000 T01280061 10144 20128 53008
PAUN 230456Z AUTO 29008KT 10SM SCT095 14/07 A3002 RMK AO2 SLP169 T01390067
PAUN 230356Z AUTO 31009KT 10SM SCT095 13/07 A3001 RMK AO2 RAB20E38 SLP167 P0000 T01330067
PAUN 230256Z AUTO 32010KT 10SM SCT060 BKN090 14/07 A3000 RMK AO2 SLP164 T01390067 53008
PAUN 230156Z AUTO 31011KT 10SM BKN060 BKN080 14/06 A2999 RMK AO2 SLP161 T01390061
PAUN 230056Z AUTO 31009KT 10SM SCT070 13/06 A2999 RMK AO2 SLP159 T01330061
PAUN 222356Z AUTO 33008KT 10SM CLR 14/07 A2998 RMK AO2 SLP156 T01390067 10139 20122 51005
PAUN 222256Z AUTO 32008KT 10SM CLR 13/07 A2998 RMK AO2 SLP156 T01330072
PAUN 222156Z AUTO 30007KT 10SM FEW048 13/07 A2998 RMK AO2 SLP155 T01330072
PAUN 222056Z AUTO 28006KT 10SM BKN060 13/07 A2997 RMK AO2 SLP151 T01330072 53012
PAUN 221956Z AUTO 26008KT 10SM OVC065 13/07 A2995 RMK AO2 SLP146 T01280067
PAUN 221856Z AUTO 25007KT 10SM FEW040 BKN075 12/08 A2994 RMK AO2 SLP143 T01220078
PAUN 221812Z AUTO 24008KT 10SM SCT025 OVC036 12/07 A2993 RMK AO2
PAUN 221756Z AUTO 23009KT 10SM BKN025 OVC034 12/08 A2993 RMK AO2 SLP140 T01220078 10128 20094 53018
PAUN 221748Z AUTO 22008KT 10SM BKN027 OVC034 12/08 A2993 RMK AO2
PAUN 221656Z AUTO 22012KT 10SM BKN032 BKN039 OVC060 12/08 A2991 RMK AO2 SLP133 T01220083
PAUN 221639Z AUTO 22010KT 10SM OVC030 12/08 A2991 RMK AO2
PAUN 221556Z AUTO 21010KT 10SM FEW016 OVC028 12/08 A2989 RMK AO2 SLP127 T01170083
PAUN 221503Z AUTO VRB04KT 10SM BKN020 OVC030 11/08 A2988 RMK AO2
PAUN 221456Z AUTO 15004KT 10SM SCT020 OVC030 11/08 A2988 RMK AO2 SLP121 T01060078 51015
PAUN 221356Z AUTO 20010KT 10SM FEW032 SCT047 12/08 A2986 RMK AO2 SLP116 T01170083
PAUN 221256Z AUTO 12005KT 10SM FEW080 10/07 A2985 RMK AO2 SLP112 T01000072
PAUN 221156Z AUTO 15006KT 10SM OVC080 12/08 A2983 RMK AO2 SLP106 T01220078 10178 20122 51021
PAUN 221056Z AUTO 17010KT 10SM OVC080 13/08 A2981 RMK AO2 SLP100 T01280078
PAUN 220956Z AUTO 18009KT 10SM CLR 13/08 A2979 RMK AO2 SLP092 T01330083
PAUN 220856Z AUTO 17006KT 10SM CLR 14/09 A2977 RMK AO2 SLP085 T01390089 401940111 52021
PAUN 220756Z AUTO 19008KT 10SM FEW110 14/09 A2975 RMK AO2 SLP078 T01440094
PAUN 220656Z AUTO 20006KT 10SM CLR 15/11 A2973 RMK AO2 SLP070 T01500106
PAUN 220556Z AUTO 15006KT 10SM FEW050 SCT070 18/09 A2971 RMK AO2 SLP064 60000 T01780094 10194 20161 51012
PAUN 220456Z AUTO 13007KT 10SM FEW055 BKN070 17/10 A2970 RMK AO2 SLP061 T01720100
PAUN 220356Z AUTO 16012G18KT 10SM BKN050 OVC075 17/08 A2968 RMK AO2 SLP056 T01720083
PAUN 220256Z AUTO 10011KT 10SM SCT065 OVC095 19/08 A2967 RMK AO2 SLP052 60000 T01890078 57002
PAUN 220156Z AUTO 10008KT 10SM FEW070 BKN100 19/09 A2967 RMK AO2 SLP053 T01890089
PAUN 220056Z AUTO 09007KT 10SM FEW060 BKN095 17/09 A2968 RMK AO2 RAB26E43 SLP054 P0000 T01720094
PAUN 212356Z AUTO 15007KT 10SM SCT080 18/09 A2968 RMK AO2 RAE31 SLP054 P0000 60000 T01780094 10189 20150 50002